sensor_id;sensor_type;location;lat;lon;timestamp;pressure;altitude;pressure_sealevel;temperature;humidity
38191;BME280;25191;47.510;19.124;2023-05-29T00:08:36;100290.91;;;22.75;37.17
38191;BME280;25191;47.510;19.124;2023-05-29T00:28:37;100290.41;;;22.60;36.96
38191;BME280;25191;47.510;19.124;2023-05-29T00:48:37;100293.00;;;22.50;37.11
38191;BME280;25191;47.510;19.124;2023-05-29T01:08:37;100274.69;;;22.37;37.40
38191;BME280;25191;47.510;19.124;2023-05-29T01:28:47;100265.16;;;22.25;37.46
38191;BME280;25191;47.510;19.124;2023-05-29T01:48:47;100258.72;;;22.17;38.23
38191;BME280;25191;47.510;19.124;2023-05-29T02:08:48;100254.69;;;22.13;37.90
38191;BME280;25191;47.510;19.124;2023-05-29T02:28:48;100242.25;;;22.04;38.57
38191;BME280;25191;47.510;19.124;2023-05-29T02:48:49;100232.47;;;21.95;38.55
38191;BME280;25191;47.510;19.124;2023-05-29T03:08:49;100230.47;;;21.87;38.92
38191;BME280;25191;47.510;19.124;2023-05-29T03:28:51;100238.19;;;21.79;38.78
38191;BME280;25191;47.510;19.124;2023-05-29T03:48:51;100269.81;;;21.79;39.09
38191;BME280;25191;47.510;19.124;2023-05-29T04:08:51;100269.72;;;21.69;39.89
38191;BME280;25191;47.510;19.124;2023-05-29T04:28:52;100279.44;;;21.68;39.87
38191;BME280;25191;47.510;19.124;2023-05-29T04:48:57;100287.09;;;21.71;40.40
38191;BME280;25191;47.510;19.124;2023-05-29T05:08:57;100288.66;;;21.74;41.11
38191;BME280;25191;47.510;19.124;2023-05-29T05:28:59;100297.94;;;21.89;41.28
38191;BME280;25191;47.510;19.124;2023-05-29T05:48:59;100298.13;;;21.98;41.08
38191;BME280;25191;47.510;19.124;2023-05-29T06:09:01;100306.84;;;22.10;41.22
38191;BME280;25191;47.510;19.124;2023-05-29T06:29:01;100316.97;;;22.26;41.78
38191;BME280;25191;47.510;19.124;2023-05-29T06:49:01;100323.75;;;22.39;41.87
38191;BME280;25191;47.510;19.124;2023-05-29T07:09:04;100336.63;;;22.54;41.99
38191;BME280;25191;47.510;19.124;2023-05-29T07:29:04;100347.56;;;22.49;42.51
38191;BME280;25191;47.510;19.124;2023-05-29T07:49:05;100375.25;;;22.55;42.45
38191;BME280;25191;47.510;19.124;2023-05-29T08:09:13;100359.53;;;22.75;42.92
38191;BME280;25191;47.510;19.124;2023-05-29T08:29:14;100357.81;;;22.95;42.76
38191;BME280;25191;47.510;19.124;2023-05-29T08:49:15;100358.56;;;23.07;43.62
38191;BME280;25191;47.510;19.124;2023-05-29T09:09:16;100341.59;;;23.21;43.41
38191;BME280;25191;47.510;19.124;2023-05-29T09:29:17;100344.81;;;23.34;43.03
38191;BME280;25191;47.510;19.124;2023-05-29T09:49:17;100356.41;;;23.43;42.35
38191;BME280;25191;47.510;19.124;2023-05-29T10:09:23;100366.00;;;23.44;42.81
38191;BME280;25191;47.510;19.124;2023-05-29T10:29:58;100364.38;;;23.62;43.18
38191;BME280;25191;47.510;19.124;2023-05-29T10:50:00;100351.13;;;23.53;43.63
38191;BME280;25191;47.510;19.124;2023-05-29T11:30:22;100338.75;;;23.53;44.03
38191;BME280;25191;47.510;19.124;2023-05-29T11:50:26;100324.72;;;23.53;43.08
38191;BME280;25191;47.510;19.124;2023-05-29T12:10:27;100291.88;;;23.55;43.38
38191;BME280;25191;47.510;19.124;2023-05-29T12:30:30;100264.34;;;23.67;42.67
38191;BME280;25191;47.510;19.124;2023-05-29T13:10:31;100251.66;;;24.20;41.97
38191;BME280;25191;47.510;19.124;2023-05-29T13:30:32;100237.88;;;24.26;41.39
38191;BME280;25191;47.510;19.124;2023-05-29T13:50:33;100233.09;;;24.40;40.46
38191;BME280;25191;47.510;19.124;2023-05-29T14:10:33;100220.09;;;24.56;40.97
38191;BME280;25191;47.510;19.124;2023-05-29T14:30:33;100217.28;;;24.68;40.16
38191;BME280;25191;47.510;19.124;2023-05-29T14:50:34;100211.56;;;24.72;42.16
38191;BME280;25191;47.510;19.124;2023-05-29T15:10:34;100211.38;;;24.84;43.79
38191;BME280;25191;47.510;19.124;2023-05-29T15:30:35;100199.09;;;24.83;42.24
38191;BME280;25191;47.510;19.124;2023-05-29T15:50:36;100190.78;;;24.77;37.19
38191;BME280;25191;47.510;19.124;2023-05-29T16:10:37;100182.44;;;24.72;37.16
38191;BME280;25191;47.510;19.124;2023-05-29T16:30:38;100189.03;;;24.68;37.21
38191;BME280;25191;47.510;19.124;2023-05-29T16:50:40;100197.63;;;24.70;37.32
38191;BME280;25191;47.510;19.124;2023-05-29T17:10:40;100188.56;;;24.73;37.37
38191;BME280;25191;47.510;19.124;2023-05-29T17:30:41;100200.84;;;24.64;36.95
38191;BME280;25191;47.510;19.124;2023-05-29T17:50:42;100211.63;;;24.53;37.16
38191;BME280;25191;47.510;19.124;2023-05-29T18:10:42;100226.13;;;24.39;37.88
38191;BME280;25191;47.510;19.124;2023-05-29T18:30:43;100233.56;;;24.25;38.79
38191;BME280;25191;47.510;19.124;2023-05-29T18:50:43;100243.34;;;24.15;39.52
38191;BME280;25191;47.510;19.124;2023-05-29T19:10:44;100252.41;;;24.03;41.30
38191;BME280;25191;47.510;19.124;2023-05-29T19:30:44;100262.66;;;23.86;41.77
38191;BME280;25191;47.510;19.124;2023-05-29T19:50:48;100283.41;;;23.71;42.40
38191;BME280;25191;47.510;19.124;2023-05-29T20:10:48;100290.94;;;23.66;44.19
38191;BME280;25191;47.510;19.124;2023-05-29T20:30:48;100287.56;;;23.54;45.43
38191;BME280;25191;47.510;19.124;2023-05-29T20:50:49;100273.91;;;23.39;46.74
38191;BME280;25191;47.510;19.124;2023-05-29T21:10:50;100276.13;;;23.24;47.63
38191;BME280;25191;47.510;19.124;2023-05-29T21:30:50;100263.25;;;23.10;48.04
38191;BME280;25191;47.510;19.124;2023-05-29T21:50:51;100268.72;;;22.87;48.95
38191;BME280;25191;47.510;19.124;2023-05-29T22:10:51;100266.00;;;22.67;49.54
38191;BME280;25191;47.510;19.124;2023-05-29T22:30:52;100279.28;;;22.56;49.97
38191;BME280;25191;47.510;19.124;2023-05-29T22:50:52;100260.09;;;22.33;50.06
38191;BME280;25191;47.510;19.124;2023-05-29T23:10:55;100264.28;;;22.14;50.56
38191;BME280;25191;47.510;19.124;2023-05-29T23:30:56;100262.63;;;22.02;51.00
38191;BME280;25191;47.510;19.124;2023-05-29T23:50:56;100252.03;;;21.92;51.25
